Time;durP1;ratioP1;P1;durP2;ratioP2;P2;SDS_P1;SDS_P2;PMS_P1;PMS_P2;Temp;Humidity;BMP_temperature;BMP_pressure;BME280_temperature;BME280_humidity;BME280_pressure;Samples;Min_cycle;Max_cycle;Signal;HPM_P1;HPM_P2
2024/03/18 00:02:19;;;;;;;4.87;2.80;;;8.70;99.90;;;;;;4987193;28;20049;-86
2024/03/18 00:04:46;;;;;;;8.50;2.80;;;8.70;99.90;;;;;;4985709;28;20058;-86
2024/03/18 00:07:11;;;;;;;7.53;2.60;;;8.70;99.90;;;;;;5000973;28;20628;-86
2024/03/18 00:09:37;;;;;;;6.03;2.93;;;8.60;99.90;;;;;;4986694;28;20398;-86
2024/03/18 00:12:02;;;;;;;9.60;3.03;;;8.60;99.90;;;;;;4987041;28;20053;-86
2024/03/18 00:14:28;;;;;;;8.23;3.80;;;8.60;99.90;;;;;;4986460;28;20034;-86
2024/03/18 00:16:53;;;;;;;5.97;3.33;;;8.60;99.90;;;;;;4985360;28;20046;-86
2024/03/18 00:19:21;;;;;;;6.93;3.80;;;8.50;99.90;;;;;;4985904;28;20038;-87
2024/03/18 00:21:48;;;;;;;7.30;3.63;;;8.50;99.90;;;;;;4985716;28;20037;-86
2024/03/18 00:24:13;;;;;;;7.83;3.73;;;8.50;99.90;;;;;;4987272;28;20139;-87
2024/03/18 00:26:39;;;;;;;12.23;3.90;;;8.50;99.90;;;;;;4986405;28;20188;-87
2024/03/18 00:29:04;;;;;;;8.27;4.00;;;8.50;99.90;;;;;;4986234;28;20050;-87
2024/03/18 00:31:30;;;;;;;8.17;3.90;;;8.50;99.90;;;;;;4985677;28;20062;-87
2024/03/18 00:33:56;;;;;;;12.27;4.87;;;8.50;99.90;;;;;;4984223;28;20042;-86
2024/03/18 00:36:21;;;;;;;12.27;5.00;;;8.50;99.90;;;;;;4986462;28;20117;-86
2024/03/18 00:38:47;;;;;;;9.13;4.50;;;8.50;99.90;;;;;;4986495;28;20081;-87
2024/03/18 00:43:59;;;;;;;8.97;3.53;;;8.50;99.90;;;;;;4985735;28;20041;-86
2024/03/18 00:46:25;;;;;;;7.50;3.50;;;8.50;99.90;;;;;;4985928;28;20556;-87
2024/03/18 00:48:50;;;;;;;6.53;3.67;;;8.50;99.90;;;;;;4984980;28;20030;-86
2024/03/18 00:51:16;;;;;;;9.87;3.40;;;8.50;99.90;;;;;;4986323;28;20038;-86
2024/03/18 00:53:42;;;;;;;7.03;3.50;;;8.50;99.90;;;;;;4985710;28;20102;-86
2024/03/18 00:56:07;;;;;;;7.53;3.40;;;8.50;99.90;;;;;;4985317;28;20042;-86
2024/03/18 00:58:34;;;;;;;6.10;3.27;;;8.50;99.90;;;;;;4985400;28;20048;-87
2024/03/18 01:01:00;;;;;;;6.93;3.40;;;8.50;99.90;;;;;;4986827;28;21297;-86
2024/03/18 01:03:26;;;;;;;5.77;2.87;;;8.50;99.90;;;;;;4984515;28;20406;-86
2024/03/18 01:05:51;;;;;;;10.77;3.10;;;8.50;99.90;;;;;;4986286;28;20029;-87
2024/03/18 01:08:17;;;;;;;5.30;3.00;;;8.50;99.90;;;;;;4985194;28;20041;-87
2024/03/18 01:10:42;;;;;;;9.17;2.97;;;8.50;99.90;;;;;;4983450;28;20457;-86
2024/03/18 01:13:11;;;;;;;6.17;2.70;;;8.50;99.90;;;;;;4984019;28;20026;-86
2024/03/18 01:15:37;;;;;;;8.00;3.20;;;8.50;99.90;;;;;;4983860;28;20027;-86
2024/03/18 01:18:05;;;;;;;8.83;2.83;;;8.50;99.90;;;;;;4985238;28;20026;-86
2024/03/18 01:20:32;;;;;;;5.70;2.70;;;8.50;99.90;;;;;;4985941;28;20026;-86
2024/03/18 01:23:04;;;;;;;6.87;2.80;;;8.50;99.90;;;;;;4985595;28;20031;-86
2024/03/18 01:25:32;;;;;;;4.37;2.50;;;8.50;99.90;;;;;;4985286;28;20026;-87
2024/03/18 01:27:58;;;;;;;7.73;2.57;;;8.50;99.90;;;;;;4986669;28;20112;-86
2024/03/18 01:30:24;;;;;;;6.50;2.80;;;8.50;99.90;;;;;;4986007;28;20019;-85
2024/03/18 01:32:49;;;;;;;6.40;2.87;;;8.50;99.90;;;;;;4985052;28;20026;-87
2024/03/18 01:35:15;;;;;;;5.97;2.43;;;8.50;99.90;;;;;;4985653;28;20027;-86
2024/03/18 01:37:43;;;;;;;4.73;2.27;;;8.50;99.90;;;;;;4991777;28;20023;-86
2024/03/18 01:40:12;;;;;;;9.30;2.60;;;8.60;99.90;;;;;;4985378;28;20026;-87
2024/03/18 01:42:39;;;;;;;6.27;2.30;;;8.60;99.90;;;;;;4985373;28;20038;-86
2024/03/18 01:45:05;;;;;;;5.70;2.27;;;8.60;99.90;;;;;;4982691;28;20034;-86
2024/03/18 01:47:31;;;;;;;3.90;2.30;;;8.60;99.90;;;;;;4984745;28;20509;-86
2024/03/18 01:49:57;;;;;;;4.63;2.20;;;8.60;99.90;;;;;;4985088;28;20034;-86
2024/03/18 01:52:24;;;;;;;5.30;2.47;;;8.60;99.90;;;;;;4984251;28;20544;-86
2024/03/18 01:54:51;;;;;;;4.30;2.27;;;8.50;99.90;;;;;;4983681;28;20500;-86
2024/03/18 01:57:17;;;;;;;4.93;2.40;;;8.60;99.90;;;;;;4983714;28;20026;-85
2024/03/18 01:59:42;;;;;;;4.83;1.97;;;8.50;99.90;;;;;;4982129;28;20037;-85
2024/03/18 02:02:11;;;;;;;3.97;2.20;;;8.50;99.90;;;;;;4983553;28;20129;-85
2024/03/18 02:04:37;;;;;;;4.47;2.00;;;8.50;99.90;;;;;;4983187;28;20034;-86
2024/03/18 02:07:20;;;;;;;3.93;1.80;;;8.50;99.90;;;;;;4997383;28;20474;-86
2024/03/18 02:09:46;;;;;;;3.77;2.57;;;8.50;99.90;;;;;;4983219;28;20033;-86
2024/03/18 02:12:12;;;;;;;5.83;1.90;;;8.50;99.90;;;;;;4982791;28;20042;-86
2024/03/18 02:14:37;;;;;;;6.57;2.30;;;8.50;99.90;;;;;;4984819;28;20018;-86
2024/03/18 02:17:06;;;;;;;4.80;1.80;;;8.50;99.90;;;;;;4982570;28;20022;-86
2024/03/18 02:19:31;;;;;;;3.97;1.77;;;8.50;99.90;;;;;;4984911;28;20693;-87
2024/03/18 02:22:00;;;;;;;5.53;1.80;;;8.50;99.90;;;;;;4984513;28;20049;-86
2024/03/18 02:24:26;;;;;;;8.13;2.40;;;8.50;99.90;;;;;;4984553;28;20742;-86
2024/03/18 02:26:52;;;;;;;4.80;2.23;;;8.50;99.90;;;;;;4984839;28;20030;-86
2024/03/18 02:29:17;;;;;;;4.40;2.03;;;8.50;99.90;;;;;;4986021;28;20034;-86
2024/03/18 02:31:43;;;;;;;2.93;1.53;;;8.50;99.90;;;;;;4983925;28;20132;-86
2024/03/18 02:34:08;;;;;;;5.30;1.63;;;8.50;99.90;;;;;;4984098;28;20026;-87
2024/03/18 02:36:34;;;;;;;3.50;1.60;;;8.50;99.90;;;;;;4983943;28;20033;-86
2024/03/18 02:38:59;;;;;;;5.67;1.97;;;8.50;99.90;;;;;;5005908;28;20565;-86
2024/03/18 02:41:25;;;;;;;2.63;1.60;;;8.50;99.90;;;;;;4983607;28;20581;-86
2024/03/18 02:43:51;;;;;;;4.60;1.80;;;8.50;99.90;;;;;;4983502;28;20026;-86
2024/03/18 02:46:17;;;;;;;3.43;1.53;;;8.50;99.90;;;;;;4983469;28;20034;-86
2024/03/18 02:48:43;;;;;;;3.70;1.60;;;8.50;99.90;;;;;;4983553;28;20112;-86
2024/03/18 02:51:08;;;;;;;5.00;1.60;;;8.50;99.90;;;;;;4999574;28;20547;-86
2024/03/18 02:53:34;;;;;;;7.90;1.77;;;8.50;99.90;;;;;;4983573;28;20572;-87
2024/03/18 02:56:00;;;;;;;5.60;2.00;;;8.50;99.90;;;;;;4983263;28;20023;-86
2024/03/18 02:58:25;;;;;;;3.73;1.70;;;8.50;99.90;;;;;;4985376;28;20041;-86
2024/03/18 03:00:54;;;;;;;3.27;1.70;;;8.50;99.90;;;;;;4984893;28;20110;-87
2024/03/18 03:03:19;;;;;;;5.83;1.80;;;8.50;99.90;;;;;;4985476;28;20434;-86
2024/03/18 03:05:45;;;;;;;5.43;1.60;;;8.50;99.90;;;;;;4983996;28;20031;-86
2024/03/18 03:08:11;;;;;;;4.40;1.83;;;8.50;99.90;;;;;;4983772;28;20034;-87
2024/03/18 03:10:39;;;;;;;3.60;1.43;;;8.50;99.90;;;;;;4984150;28;20211;-86
2024/03/18 03:13:05;;;;;;;2.83;1.60;;;8.50;99.90;;;;;;4984964;28;20062;-86
2024/03/18 03:15:36;;;;;;;4.17;1.57;;;8.50;99.90;;;;;;5000771;28;20026;-87
2024/03/18 03:18:03;;;;;;;4.43;1.60;;;8.60;99.90;;;;;;4988349;28;20443;-86
2024/03/18 03:20:30;;;;;;;5.13;1.50;;;8.50;99.90;;;;;;4987068;28;20030;-87
2024/03/18 03:22:58;;;;;;;3.00;1.27;;;8.50;99.90;;;;;;4985336;28;20494;-87
2024/03/18 03:25:23;;;;;;;3.07;1.37;;;8.60;99.90;;;;;;4984285;28;20101;-86
2024/03/18 03:27:49;;;;;;;4.73;1.93;;;8.60;99.90;;;;;;4984640;28;20375;-85
2024/03/18 03:30:15;;;;;;;6.47;1.60;;;8.60;99.90;;;;;;4987386;28;20041;-86
2024/03/18 03:32:40;;;;;;;2.57;1.30;;;8.60;99.90;;;;;;4991261;28;20031;-86
2024/03/18 03:35:07;;;;;;;6.93;2.17;;;8.50;99.90;;;;;;4990883;28;20172;-86
2024/03/18 03:37:35;;;;;;;4.63;1.37;;;8.60;99.90;;;;;;4987417;28;20042;-85
2024/03/18 03:40:00;;;;;;;4.57;1.80;;;8.60;99.90;;;;;;4987186;28;20042;-86
2024/03/18 03:42:27;;;;;;;3.53;1.47;;;8.60;99.90;;;;;;4987812;28;20057;-85
2024/03/18 03:44:52;;;;;;;3.27;1.43;;;8.60;99.90;;;;;;4986587;28;20456;-86
2024/03/18 03:47:19;;;;;;;5.17;1.70;;;8.60;99.90;;;;;;5002684;28;20029;-86
2024/03/18 03:49:45;;;;;;;2.97;1.47;;;8.60;99.90;;;;;;4986796;28;20113;-86
2024/03/18 03:52:10;;;;;;;5.80;1.60;;;8.60;99.90;;;;;;4987101;28;20076;-85
2024/03/18 03:54:36;;;;;;;4.53;1.60;;;8.60;99.90;;;;;;5002859;28;20034;-86
2024/03/18 03:57:01;;;;;;;3.20;1.40;;;8.60;99.90;;;;;;4987339;28;20022;-85
2024/03/18 03:59:27;;;;;;;4.77;1.43;;;8.60;99.90;;;;;;4986793;28;20506;-86
2024/03/18 04:01:54;;;;;;;4.73;1.60;;;8.60;99.90;;;;;;4985951;28;20939;-86
2024/03/18 04:04:20;;;;;;;8.20;1.63;;;8.60;99.90;;;;;;4987534;28;20121;-86
2024/03/18 04:06:46;;;;;;;2.67;1.50;;;8.60;99.90;;;;;;4986693;28;20500;-86
2024/03/18 04:09:11;;;;;;;3.77;1.70;;;8.60;99.90;;;;;;4986589;28;20027;-87
2024/03/18 04:11:38;;;;;;;3.13;1.50;;;8.60;99.90;;;;;;4986594;28;20031;-86
2024/03/18 04:14:04;;;;;;;5.53;1.40;;;8.60;99.90;;;;;;4987137;28;20030;-86
2024/03/18 04:16:29;;;;;;;2.93;1.43;;;8.60;99.90;;;;;;4985243;28;20080;-86
2024/03/18 04:18:55;;;;;;;3.27;1.30;;;8.60;99.90;;;;;;4985896;28;20026;-86
2024/03/18 04:21:20;;;;;;;5.30;1.40;;;8.60;99.90;;;;;;4985295;28;20114;-87
2024/03/18 04:23:46;;;;;;;5.27;1.30;;;8.60;99.90;;;;;;4985212;28;20162;-86
2024/03/18 04:26:12;;;;;;;3.53;1.40;;;8.60;99.90;;;;;;4984350;28;20022;-87
2024/03/18 04:28:37;;;;;;;2.90;1.20;;;8.70;99.90;;;;;;5001231;28;20034;-86
2024/03/18 04:31:07;;;;;;;4.80;1.33;;;8.70;99.90;;;;;;4985614;28;20045;-86
2024/03/18 04:33:36;;;;;;;9.73;2.27;;;8.70;99.90;;;;;;4986617;28;20034;-86
2024/03/18 04:36:02;;;;;;;2.97;1.27;;;8.70;99.90;;;;;;4987537;28;20050;-87
2024/03/18 04:38:28;;;;;;;3.00;1.37;;;8.60;99.90;;;;;;4985972;28;20500;-86
2024/03/18 04:40:54;;;;;;;4.47;1.30;;;8.70;99.90;;;;;;4985468;28;20037;-87
2024/03/18 04:43:19;;;;;;;2.07;1.40;;;8.70;99.90;;;;;;4986325;28;20034;-87
2024/03/18 04:45:45;;;;;;;2.93;1.30;;;8.70;99.90;;;;;;4985912;28;20026;-86
2024/03/18 04:48:11;;;;;;;3.07;1.50;;;8.60;99.90;;;;;;4986866;28;20027;-87
2024/03/18 04:50:37;;;;;;;7.00;1.40;;;8.60;99.90;;;;;;4986804;28;20033;-86
2024/03/18 04:53:03;;;;;;;5.67;1.97;;;8.60;99.90;;;;;;4987513;28;20026;-86
2024/03/18 04:55:29;;;;;;;4.33;1.47;;;8.60;99.90;;;;;;4986278;28;20042;-86
2024/03/18 04:57:55;;;;;;;3.90;1.50;;;8.60;99.90;;;;;;4986054;28;20579;-86
2024/03/18 05:00:24;;;;;;;3.37;1.40;;;8.60;99.90;;;;;;4986854;28;20030;-87
2024/03/18 05:02:51;;;;;;;4.50;1.80;;;8.50;99.90;;;;;;4986083;28;20084;-87
2024/03/18 05:05:17;;;;;;;6.13;1.80;;;8.50;99.90;;;;;;5000265;28;20651;-85
2024/03/18 05:07:43;;;;;;;4.77;1.90;;;8.60;99.90;;;;;;4983855;28;20112;-86
2024/03/18 05:10:10;;;;;;;4.90;2.23;;;8.60;99.90;;;;;;4986007;28;20109;-86
2024/03/18 05:12:36;;;;;;;7.80;2.03;;;8.60;99.90;;;;;;4986049;28;20044;-86
2024/03/18 05:15:03;;;;;;;4.30;1.90;;;8.50;99.90;;;;;;4985697;28;20058;-83
2024/03/18 05:17:28;;;;;;;4.33;2.00;;;8.60;99.90;;;;;;4988628;28;20049;-86
2024/03/18 05:19:55;;;;;;;4.53;1.87;;;8.50;99.90;;;;;;4988142;28;20023;-85
2024/03/18 05:22:22;;;;;;;6.07;1.87;;;8.50;99.90;;;;;;4984662;28;20125;-75
2024/03/18 05:24:48;;;;;;;6.13;1.80;;;8.50;99.90;;;;;;4982265;28;20030;-84
2024/03/18 05:27:15;;;;;;;4.27;1.87;;;8.50;99.90;;;;;;4993535;28;20034;-84
2024/03/18 05:29:41;;;;;;;5.87;1.73;;;8.50;99.90;;;;;;4994633;28;20026;-84
2024/03/18 05:32:12;;;;;;;5.10;2.53;;;8.50;99.90;;;;;;4989201;28;20397;-84
2024/03/18 05:34:38;;;;;;;6.00;2.97;;;8.50;99.90;;;;;;4987594;28;20026;-84
2024/03/18 05:37:04;;;;;;;7.23;3.97;;;8.40;99.90;;;;;;5001662;28;21156;-85
2024/03/18 05:39:30;;;;;;;8.50;5.23;;;8.40;99.90;;;;;;4986073;28;20049;-84
2024/03/18 05:41:57;;;;;;;12.23;7.37;;;8.40;99.90;;;;;;4986331;28;20470;-83
2024/03/18 05:44:22;;;;;;;8.00;4.77;;;8.30;99.90;;;;;;4987396;28;20035;-85
2024/03/18 05:46:48;;;;;;;7.10;4.00;;;8.30;99.90;;;;;;4985333;28;20627;-84
2024/03/18 05:49:14;;;;;;;8.50;4.07;;;8.30;99.90;;;;;;4985834;28;20022;-84
2024/03/18 05:51:39;;;;;;;9.27;3.23;;;8.30;99.90;;;;;;4987965;28;20042;-86
2024/03/18 05:54:05;;;;;;;8.57;3.80;;;8.30;99.90;;;;;;5001683;28;20144;-86
2024/03/18 05:56:31;;;;;;;11.83;4.37;;;8.30;99.90;;;;;;4984472;28;20023;-80
2024/03/18 05:58:57;;;;;;;7.03;3.97;;;8.30;99.90;;;;;;4978570;28;20030;-74
2024/03/18 06:01:22;;;;;;;8.00;4.43;;;8.30;99.90;;;;;;4979732;28;20038;-74
2024/03/18 06:03:48;;;;;;;13.73;6.03;;;8.30;99.90;;;;;;4977393;28;20053;-74
2024/03/18 06:06:13;;;;;;;8.73;4.73;;;8.40;99.90;;;;;;4979196;28;20034;-74
2024/03/18 06:08:39;;;;;;;7.00;3.13;;;8.40;99.90;;;;;;4981086;28;20034;-86
2024/03/18 06:11:05;;;;;;;6.93;2.97;;;8.40;99.90;;;;;;4983831;28;20106;-85
2024/03/18 06:13:35;;;;;;;5.93;2.63;;;8.50;99.90;;;;;;4982854;28;20740;-86
2024/03/18 06:16:03;;;;;;;6.87;2.77;;;8.50;99.90;;;;;;4979986;28;20498;-86
2024/03/18 06:18:29;;;;;;;7.23;3.10;;;8.60;99.90;;;;;;4982223;28;20233;-87
2024/03/18 06:20:56;;;;;;;8.93;3.33;;;8.60;99.90;;;;;;4983958;28;20030;-86
2024/03/18 06:23:25;;;;;;;6.93;2.80;;;8.60;99.90;;;;;;4985481;28;20033;-86
2024/03/18 06:25:58;;;;;;;6.83;3.00;;;8.70;99.90;;;;;;4982483;28;20037;-86
2024/03/18 06:28:31;;;;;;;7.67;2.73;;;8.70;99.90;;;;;;4985054;28;20097;-86
2024/03/18 06:30:58;;;;;;;5.40;2.47;;;8.70;99.90;;;;;;4984221;28;20034;-87
2024/03/18 06:33:25;;;;;;;7.90;2.40;;;8.80;99.90;;;;;;4992703;28;20026;-85
2024/03/18 06:35:55;;;;;;;6.13;2.40;;;8.80;99.90;;;;;;4990408;28;20058;-85
2024/03/18 06:38:22;;;;;;;4.40;2.63;;;8.80;99.90;;;;;;4993351;28;20022;-85
2024/03/18 06:40:50;;;;;;;9.80;2.53;;;8.80;99.90;;;;;;4993413;28;20086;-85
2024/03/18 06:43:16;;;;;;;8.33;2.60;;;8.80;99.90;;;;;;4994594;28;20042;-86
2024/03/18 06:45:42;;;;;;;6.57;2.30;;;8.90;99.90;;;;;;4994556;28;20237;-85
2024/03/18 06:48:08;;;;;;;6.10;2.00;;;8.90;99.90;;;;;;4991996;28;20022;-85
2024/03/18 06:50:38;;;;;;;6.57;2.50;;;8.90;99.90;;;;;;4992285;28;20735;-86
2024/03/18 06:53:05;;;;;;;6.40;2.60;;;9.00;99.90;;;;;;4994801;28;20038;-86
2024/03/18 06:55:40;;;;;;;9.67;2.60;;;9.00;99.90;;;;;;4994909;28;20033;-86
2024/03/18 06:58:05;;;;;;;9.85;2.85;;;9.00;99.90;;;;;;4993084;28;20049;-84
2024/03/18 07:00:32;;;;;;;7.03;2.53;;;9.10;99.90;;;;;;4989880;28;20031;-83
2024/03/18 07:02:58;;;;;;;9.20;2.63;;;9.10;99.90;;;;;;4987452;28;20035;-83
2024/03/18 07:05:24;;;;;;;10.23;4.53;;;9.20;99.90;;;;;;4992550;28;20097;-84
2024/03/18 07:07:50;;;;;;;9.77;3.53;;;9.20;99.90;;;;;;5007678;28;20030;-83
2024/03/18 07:10:16;;;;;;;6.47;2.90;;;9.30;99.90;;;;;;4992333;28;20379;-84
2024/03/18 07:12:44;;;;;;;7.73;3.10;;;9.50;99.90;;;;;;4992797;28;20045;-85
2024/03/18 07:15:12;;;;;;;14.53;3.80;;;9.50;99.90;;;;;;5009742;28;20034;-86
2024/03/18 07:17:39;;;;;;;11.73;2.83;;;9.70;99.90;;;;;;4994884;28;20030;-84
2024/03/18 07:20:06;;;;;;;9.70;2.40;;;9.70;99.90;;;;;;4989236;28;20036;-82
2024/03/18 07:22:35;;;;;;;8.63;1.97;;;9.80;99.90;;;;;;4988451;28;20030;-85
2024/03/18 07:25:01;;;;;;;9.33;2.50;;;9.90;99.90;;;;;;4990321;28;20029;-82
2024/03/18 07:27:27;;;;;;;11.10;4.87;;;10.00;99.90;;;;;;4993578;28;21433;-84
2024/03/18 07:29:57;;;;;;;9.13;1.97;;;10.10;99.90;;;;;;4995965;28;20029;-84
2024/03/18 07:32:25;;;;;;;6.60;1.67;;;10.20;99.90;;;;;;4993423;28;20039;-87
2024/03/18 07:34:51;;;;;;;4.70;1.60;;;10.30;99.90;;;;;;4985738;28;20105;-89
2024/03/18 07:37:18;;;;;;;8.83;3.03;;;10.40;99.90;;;;;;4989297;28;20164;-85
2024/03/18 07:39:45;;;;;;;5.37;2.10;;;10.50;99.90;;;;;;4983963;28;20121;-87
2024/03/18 07:42:11;;;;;;;5.87;2.00;;;10.60;99.90;;;;;;4984796;28;20536;-87
2024/03/18 07:44:38;;;;;;;9.10;1.90;;;10.70;99.90;;;;;;4985132;28;20030;-87
2024/03/18 07:47:03;;;;;;;14.37;5.00;;;10.80;99.90;;;;;;4983608;28;20038;-87
2024/03/18 07:49:29;;;;;;;21.70;12.80;;;10.80;99.90;;;;;;4983709;28;20027;-86
2024/03/18 07:51:54;;;;;;;21.37;11.20;;;10.90;99.90;;;;;;4983387;28;20046;-87
2024/03/18 07:54:20;;;;;;;12.07;5.07;;;11.00;99.90;;;;;;4984665;28;20389;-87
2024/03/18 07:56:46;;;;;;;4.00;1.90;;;11.00;99.90;;;;;;4983706;28;20204;-86
2024/03/18 07:59:11;;;;;;;4.87;1.90;;;11.10;99.90;;;;;;4984924;28;20045;-87
2024/03/18 08:01:37;;;;;;;6.27;2.60;;;11.10;99.90;;;;;;4983198;28;20031;-86
2024/03/18 08:04:02;;;;;;;12.60;2.20;;;11.10;99.90;;;;;;4982230;28;20084;-87
2024/03/18 08:06:28;;;;;;;4.18;1.77;;;11.20;99.90;;;;;;4981947;28;20890;-87
2024/03/18 08:08:54;;;;;;;8.00;2.20;;;11.20;99.90;;;;;;4984752;28;20075;-87
2024/03/18 08:11:19;;;;;;;7.07;1.60;;;11.20;99.90;;;;;;4998398;28;20077;-87
2024/03/18 08:13:45;;;;;;;6.10;1.80;;;11.10;99.90;;;;;;4983965;28;20027;-85
2024/03/18 08:16:11;;;;;;;10.80;2.07;;;11.10;99.90;;;;;;4982550;28;20026;-86
2024/03/18 08:18:36;;;;;;;13.60;2.10;;;11.10;99.90;;;;;;4984120;28;20190;-86
2024/03/18 08:21:02;;;;;;;7.47;2.00;;;11.00;99.90;;;;;;4986083;28;20045;-86
2024/03/18 08:23:27;;;;;;;6.00;1.80;;;11.00;99.90;;;;;;4986639;28;20034;-86
2024/03/18 08:25:53;;;;;;;9.00;1.80;;;11.10;99.90;;;;;;4984329;28;20050;-87
2024/03/18 08:28:19;;;;;;;7.80;1.73;;;11.10;99.90;;;;;;4983343;28;20069;-87
2024/03/18 08:30:44;;;;;;;3.95;1.50;;;11.10;99.90;;;;;;4985621;28;20034;-86
2024/03/18 08:33:10;;;;;;;6.40;1.87;;;11.10;99.90;;;;;;4985811;28;20034;-88
2024/03/18 08:35:39;;;;;;;3.15;1.52;;;11.20;99.90;;;;;;4987779;28;20042;-86
2024/03/18 08:38:05;;;;;;;3.35;1.50;;;11.10;99.90;;;;;;4986052;28;20095;-87
2024/03/18 08:40:31;;;;;;;4.85;1.73;;;11.10;99.90;;;;;;4985606;28;20069;-87
2024/03/18 08:42:56;;;;;;;5.65;1.60;;;11.20;99.90;;;;;;4979439;28;20116;-88
2024/03/18 08:45:22;;;;;;;5.85;1.70;;;11.10;99.90;;;;;;4982250;28;20081;-87
2024/03/18 08:47:48;;;;;;;9.30;2.33;;;11.20;99.90;;;;;;4983644;28;20029;-87
2024/03/18 08:50:14;;;;;;;5.15;1.65;;;11.20;99.90;;;;;;4998535;28;20027;-86
2024/03/18 08:52:40;;;;;;;12.45;2.00;;;11.20;99.90;;;;;;4984959;28;20125;-86
2024/03/18 08:55:06;;;;;;;15.05;2.28;;;11.20;99.90;;;;;;4986108;28;20152;-86
2024/03/18 08:57:32;;;;;;;9.63;1.65;;;11.20;99.90;;;;;;4999858;28;20033;-86
2024/03/18 08:59:58;;;;;;;6.28;2.15;;;11.20;99.90;;;;;;4986043;28;20022;-86
2024/03/18 09:02:23;;;;;;;6.47;2.42;;;11.20;99.90;;;;;;4985953;28;20125;-85
2024/03/18 09:04:49;;;;;;;6.90;1.38;;;11.20;99.90;;;;;;4983691;28;20026;-86
2024/03/18 09:07:15;;;;;;;6.07;1.73;;;11.20;99.90;;;;;;4985444;28;20033;-86
2024/03/18 09:09:41;;;;;;;3.83;1.60;;;11.20;99.90;;;;;;4981602;28;20347;-87
2024/03/18 09:12:07;;;;;;;6.15;1.83;;;11.30;99.90;;;;;;4981714;28;20084;-87
2024/03/18 09:14:32;;;;;;;5.93;1.67;;;11.30;99.90;;;;;;4982738;28;20483;-87
2024/03/18 09:17:01;;;;;;;7.82;1.67;;;11.30;99.90;;;;;;4995127;28;20093;-86
2024/03/18 09:19:39;;;;;;;2.58;1.17;;;11.20;99.90;;;;;;4980928;28;20027;-87
2024/03/18 09:22:05;;;;;;;5.88;1.75;;;11.20;99.90;;;;;;4980783;28;20038;-87
2024/03/18 09:24:32;;;;;;;8.38;1.55;;;11.20;99.90;;;;;;4981278;28;20128;-87
2024/03/18 09:27:01;;;;;;;2.50;1.40;;;11.20;99.90;;;;;;4982481;28;20053;-87
2024/03/18 09:29:27;;;;;;;4.10;1.73;;;11.20;99.90;;;;;;4982582;28;20028;-86
2024/03/18 09:31:53;;;;;;;3.80;1.88;;;11.20;99.90;;;;;;4982533;28;20045;-87
2024/03/18 09:34:19;;;;;;;8.57;2.10;;;11.20;99.90;;;;;;4981380;28;20034;-87
2024/03/18 09:36:44;;;;;;;7.67;1.57;;;11.20;99.90;;;;;;4983247;28;20074;-87
2024/03/18 09:39:11;;;;;;;4.28;1.90;;;11.20;99.90;;;;;;4981433;28;20077;-86
2024/03/18 09:41:39;;;;;;;6.68;1.70;;;11.20;99.90;;;;;;4981077;28;20103;-87
2024/03/18 09:44:13;;;;;;;4.63;1.50;;;11.20;99.90;;;;;;4981124;28;20403;-87
2024/03/18 09:46:39;;;;;;;3.83;1.70;;;11.20;99.90;;;;;;4981955;28;20064;-87
2024/03/18 09:49:14;;;;;;;4.53;1.95;;;11.20;99.90;;;;;;4991170;28;20121;-87
2024/03/18 09:51:42;;;;;;;5.15;1.83;;;11.20;99.90;;;;;;4980677;28;20043;-87
2024/03/18 09:54:18;;;;;;;5.63;2.10;;;11.20;99.90;;;;;;4996912;28;20031;-87
2024/03/18 09:56:58;;;;;;;5.47;1.60;;;11.10;99.90;;;;;;4981094;28;20023;-87
2024/03/18 09:59:24;;;;;;;5.25;1.85;;;11.20;99.90;;;;;;4980473;28;20022;-87
2024/03/18 10:01:49;;;;;;;5.73;1.73;;;11.20;99.90;;;;;;4982589;28;20383;-87
2024/03/18 10:04:15;;;;;;;6.93;1.70;;;11.20;99.90;;;;;;4982023;28;20101;-87
2024/03/18 10:06:41;;;;;;;5.57;1.80;;;11.20;99.90;;;;;;4980978;28;20026;-87
2024/03/18 10:09:06;;;;;;;6.15;1.60;;;11.20;99.90;;;;;;4981486;28;20153;-87
2024/03/18 10:11:33;;;;;;;5.85;1.90;;;11.30;99.90;;;;;;4981610;28;20054;-87
2024/03/18 10:13:59;;;;;;;7.70;1.83;;;11.40;99.90;;;;;;4980166;28;20081;-88
2024/03/18 10:16:24;;;;;;;5.78;1.90;;;11.50;99.90;;;;;;4980387;28;20490;-86
2024/03/18 10:18:50;;;;;;;5.25;1.90;;;11.50;99.90;;;;;;4979485;28;20041;-87
2024/03/18 10:21:16;;;;;;;5.85;1.80;;;11.50;99.90;;;;;;4980059;28;20121;-87
2024/03/18 10:23:53;;;;;;;4.47;1.85;;;11.60;99.90;;;;;;4998432;28;20211;-87
2024/03/18 10:26:19;;;;;;;4.13;2.05;;;11.60;99.90;;;;;;4984876;28;20057;-87
2024/03/18 10:28:48;;;;;;;4.57;1.90;;;11.70;99.90;;;;;;4986195;28;20113;-87
2024/03/18 10:31:16;;;;;;;5.72;1.88;;;11.70;99.90;;;;;;4981788;28;20018;-87
2024/03/18 10:33:46;;;;;;;5.38;2.08;;;11.70;99.90;;;;;;4981657;28;20059;-86
2024/03/18 10:36:34;;;;;;;6.57;2.20;;;11.70;99.90;;;;;;4981810;28;20057;-87
2024/03/18 10:39:10;;;;;;;4.60;1.80;;;11.80;99.90;;;;;;4981065;28;20026;-87
2024/03/18 10:41:39;;;;;;;5.43;1.67;;;11.90;99.90;;;;;;4981923;28;20064;-88
2024/03/18 10:44:22;;;;;;;3.90;1.70;;;11.80;99.90;;;;;;4981012;28;20072;-88
2024/03/18 10:46:48;;;;;;;5.80;1.80;;;11.90;99.90;;;;;;4981030;28;20033;-87
2024/03/18 10:49:17;;;;;;;7.78;2.10;;;11.90;99.90;;;;;;4981719;28;20038;-87
2024/03/18 10:51:49;;;;;;;4.45;1.48;;;11.90;99.90;;;;;;4980309;28;20038;-87
2024/03/18 10:54:16;;;;;;;5.45;1.50;;;11.90;99.90;;;;;;4980983;28;20038;-88
2024/03/18 10:56:45;;;;;;;4.30;1.42;;;11.90;99.90;;;;;;4980690;28;20353;-87
2024/03/18 10:59:15;;;;;;;4.10;1.70;;;12.00;99.90;;;;;;4980896;28;20081;-87
2024/03/18 11:01:41;;;;;;;5.95;1.98;;;12.00;99.90;;;;;;4995441;28;20022;-87
2024/03/18 11:04:25;;;;;;;5.70;1.63;;;11.90;99.90;;;;;;4979249;28;20128;-87
2024/03/18 11:06:53;;;;;;;8.95;2.30;;;11.90;99.90;;;;;;4981291;28;20030;-86
2024/03/18 11:09:20;;;;;;;5.55;2.00;;;11.90;99.90;;;;;;4980188;28;20030;-86
2024/03/18 11:11:46;;;;;;;7.03;1.85;;;11.90;99.90;;;;;;4983168;28;20030;-87
2024/03/18 11:14:24;;;;;;;6.95;1.70;;;11.90;99.90;;;;;;4984283;28;20486;-87
2024/03/18 11:16:51;;;;;;;7.18;1.90;;;11.90;99.90;;;;;;4981370;28;20061;-88
2024/03/18 11:19:17;;;;;;;5.30;2.40;;;11.90;99.90;;;;;;4982560;28;20056;-86
2024/03/18 11:21:43;;;;;;;8.00;2.15;;;11.90;99.90;;;;;;4982195;28;20656;-87
2024/03/18 11:24:21;;;;;;;5.70;1.65;;;11.90;99.90;;;;;;4981945;28;21497;-87
2024/03/18 11:26:54;;;;;;;5.43;1.63;;;11.90;99.90;;;;;;4982009;28;20046;-86
2024/03/18 11:29:19;;;;;;;3.72;2.00;;;11.90;99.90;;;;;;4982475;28;20045;-86
2024/03/18 11:31:49;;;;;;;4.15;1.90;;;11.80;99.90;;;;;;4997087;28;20038;-87
2024/03/18 11:34:23;;;;;;;3.33;1.90;;;11.80;99.90;;;;;;4983401;28;20034;-87
2024/03/18 11:36:49;;;;;;;5.72;2.30;;;11.80;99.90;;;;;;4982981;28;20113;-87
2024/03/18 11:39:17;;;;;;;7.88;2.40;;;11.80;99.90;;;;;;4978562;28;20109;-87
2024/03/18 11:41:45;;;;;;;8.50;2.53;;;11.70;99.90;;;;;;4981791;28;20177;-88
2024/03/18 11:44:13;;;;;;;3.22;1.77;;;11.70;99.90;;;;;;4981841;28;20130;-87
2024/03/18 11:46:39;;;;;;;4.10;2.00;;;11.70;99.90;;;;;;4981220;28;20485;-87
2024/03/18 11:49:06;;;;;;;4.30;2.03;;;11.70;99.90;;;;;;4981511;28;20034;-87
2024/03/18 11:51:34;;;;;;;5.85;2.72;;;11.70;99.90;;;;;;4984269;28;20116;-88
2024/03/18 11:54:08;;;;;;;4.72;2.53;;;11.70;99.90;;;;;;4985074;28;20085;-88
2024/03/18 11:56:35;;;;;;;7.38;2.47;;;11.60;99.90;;;;;;4999057;28;20386;-87
2024/03/18 11:59:02;;;;;;;5.50;2.53;;;11.60;99.90;;;;;;4984063;28;20034;-87
2024/03/18 12:01:29;;;;;;;6.65;3.20;;;11.60;99.90;;;;;;4984749;28;20114;-87
2024/03/18 12:03:54;;;;;;;6.53;2.45;;;11.60;99.90;;;;;;4982141;28;21441;-87
2024/03/18 12:06:20;;;;;;;5.05;2.58;;;11.60;99.90;;;;;;4985362;28;20030;-87
2024/03/18 12:08:46;;;;;;;4.57;2.50;;;11.60;99.90;;;;;;4984309;28;20037;-87
2024/03/18 12:11:12;;;;;;;5.60;2.42;;;11.50;99.90;;;;;;4981987;28;20038;-86
2024/03/18 12:13:39;;;;;;;6.35;2.88;;;11.50;99.90;;;;;;4983330;28;20128;-86
2024/03/18 12:16:08;;;;;;;5.70;2.90;;;11.50;99.90;;;;;;4980946;28;20022;-87
2024/03/18 12:18:34;;;;;;;4.75;2.80;;;11.50;99.90;;;;;;4982122;28;20382;-87
2024/03/18 12:21:00;;;;;;;8.23;4.05;;;11.60;99.90;;;;;;4981575;28;20042;-87
2024/03/18 12:29:05;;;;;;;9.23;4.03;;;11.40;99.90;;;;;;4981073;28;20036;-87
2024/03/18 12:31:36;;;;;;;6.90;3.35;;;11.30;99.90;;;;;;4982937;28;20093;-87
2024/03/18 12:34:02;;;;;;;6.40;3.38;;;11.30;99.90;;;;;;4982518;28;20023;-88
2024/03/18 12:36:30;;;;;;;7.18;3.65;;;11.20;99.90;;;;;;4979515;28;20031;-87
2024/03/18 12:38:58;;;;;;;7.40;3.80;;;11.10;99.90;;;;;;4980948;28;20054;-87
2024/03/18 12:41:26;;;;;;;5.88;3.97;;;11.10;99.90;;;;;;4977968;28;20038;-88
2024/03/18 12:43:52;;;;;;;6.60;3.97;;;11.00;99.90;;;;;;4981313;28;20022;-87
2024/03/18 12:46:18;;;;;;;10.13;5.00;;;11.00;99.90;;;;;;4995929;28;20026;-87
2024/03/18 12:48:45;;;;;;;9.82;4.80;;;11.00;99.90;;;;;;4991248;28;20426;-88
2024/03/18 12:51:15;;;;;;;6.65;4.85;;;10.90;99.90;;;;;;4980168;28;20031;-87
2024/03/18 12:53:41;;;;;;;10.80;5.00;;;10.90;99.90;;;;;;4981592;28;20394;-87
2024/03/18 12:56:08;;;;;;;8.07;5.03;;;10.80;99.90;;;;;;4980869;28;20061;-87
2024/03/18 12:58:34;;;;;;;5.67;3.90;;;10.80;99.90;;;;;;4981490;28;20080;-87
2024/03/18 13:01:03;;;;;;;9.60;5.15;;;10.80;99.90;;;;;;4981055;28;20030;-88